Wetterdaten: aktuell Sonntag, 24.06.2018 12:24
Datum Zeit Temp. A. Feuchte A. Luftdruck Regen Wind Richtung Richtung Taupunkt Windchill Windben
24.06.2018 12:24 16,3 C 62 % 1024,6 hPa 0,0 l/m 4,8 km/h (1 Bft) NW 315 9,0 C 16,3 C 6,4 km/h (2 Bft)
24.06.2018 11:24 15,1 C 68 % 1024,8 hPa 0,0 l/m 3,2 km/h (1 Bft) W-SW 247 9,2 C 15,1 C 3,2 km/h (1 Bft)
24.06.2018 10:24 14,3 C 70 % 1025,1 hPa 0,0 l/m 3,2 km/h (1 Bft) W-NW 292 8,9 C 14,3 C 4,8 km/h (1 Bft)
24.06.2018 09:24 13,8 C 73 % 1025,1 hPa 0,0 l/m 3,2 km/h (1 Bft) SW 225 9,0 C 13,8 C 6,4 km/h (2 Bft)
24.06.2018 08:24 13,1 C 87 % 1025,3 hPa 0,0 l/m 4,8 km/h (1 Bft) SW 225 11,0 C 13,1 C 11,3 km/h (2 Bft)
24.06.2018 07:24 11,7 C 92 % 1025,2 hPa 0,0 l/m 4,8 km/h (1 Bft) S-SW 202 10,4 C 11,7 C 4,8 km/h (1 Bft)
24.06.2018 06:24 10,8 C 93 % 1025,2 hPa 0,0 l/m 0,0 km/h (0 Bft) N 0 9,7 C 10,8 C 0,0 km/h (0 Bft)
24.06.2018 05:24 10,6 C 93 % 1025,3 hPa 0,0 l/m 1,6 km/h (1 Bft) SW 225 9,5 C 10,6 C 1,6 km/h (1 Bft)
24.06.2018 04:24 10,7 C 92 % 1025,4 hPa 0,0 l/m 3,2 km/h (1 Bft) SW 225 9,5 C 10,7 C 4,8 km/h (1 Bft)
24.06.2018 03:24 10,8 C 91 % 1026,1 hPa 0,0 l/m 1,6 km/h (1 Bft) S 180 9,4 C 10,8 C 3,2 km/h (1 Bft)
24.06.2018 02:24 10,8 C 90 % 1026,8 hPa 0,4 l/m 1,6 km/h (1 Bft) S-SW 202 9,2 C 10,8 C 3,2 km/h (1 Bft)
24.06.2018 01:24 12,4 C 79 % 1027,3 hPa 0,0 l/m 0,0 km/h (0 Bft) N 0 8,9 C 12,4 C 0,0 km/h (0 Bft)
24.06.2018 00:24 13,3 C 69 % 1027,5 hPa 0,0 l/m 1,6 km/h (1 Bft) N-NO 22 7,7 C 13,3 C 3,2 km/h (1 Bft)
23.06.2018 23:24 13,7 C 69 % 1027,3 hPa 0,0 l/m 3,2 km/h (1 Bft) N-NO 22 8,1 C 13,7 C 4,8 km/h (1 Bft)
23.06.2018 22:24 14,2 C 63 % 1027,2 hPa 0,0 l/m 1,6 km/h (1 Bft) NW 315 7,3 C 14,2 C 1,6 km/h (1 Bft)
23.06.2018 21:24 14,4 C 61 % 1026,8 hPa 0,0 l/m 1,6 km/h (1 Bft) W-NW 292 7,0 C 14,4 C 3,2 km/h (1 Bft)
23.06.2018 20:24 14,9 C 59 % 1026,7 hPa 0,0 l/m 8,0 km/h (2 Bft) W 270 7,0 C 14,0 C 12,9 km/h (3 Bft)
23.06.2018 19:24 16,1 C 54 % 1026,5 hPa 0,0 l/m 6,4 km/h (2 Bft) NW 315 6,8 C 16,1 C 11,3 km/h (2 Bft)
23.06.2018 18:24 16,6 C 53 % 1026,7 hPa 0,0 l/m 11,3 km/h (2 Bft) W 270 7,0 C 14,4 C 16,1 km/h (3 Bft)
23.06.2018 17:24 16,7 C 51 % 1026,7 hPa 0,0 l/m 9,7 km/h (2 Bft) NW 315 6,5 C 15,1 C 12,9 km/h (3 Bft)
23.06.2018 16:24 17,5 C 50 % 1026,9 hPa 0,0 l/m 11,3 km/h (2 Bft) W-NW 292 7,0 C 15,4 C 17,7 km/h (3 Bft)
23.06.2018 15:24 17,9 C 52 % 1026,9 hPa 0,0 l/m 14,5 km/h (3 Bft) SW 225 7,9 C 14,8 C 30,6 km/h (5 Bft)
23.06.2018 14:24 17,1 C 50 % 1027,5 hPa 0,0 l/m 11,3 km/h (2 Bft) N 360 6,6 C 14,9 C 16,1 km/h (3 Bft)
23.06.2018 13:24 16,6 C 60 % 1027,8 hPa 0,0 l/m 11,3 km/h (2 Bft) W-SW 247 8,8 C 14,4 C 14,5 km/h (3 Bft)
23.06.2018 13:00 16,1 C 58 % 1028,1 hPa 0,0 l/m 9,7 km/h (2 Bft) SW 225 7,8 C 14,5 C 17,7 km/h (3 Bft)
_ Min-Zeit 04:50 15:44 12:12 - 21:08 - - 15:44 04:39 22:52
Minimum _ 10,4 C 46 % 1024,5 hPa - 0,0 km/h (0 Bft) - - 5,7 C 9,5 C 0,0 km/h (0 Bft)
_ Max-Zeit 15:54 04:55 13:00 01:40 15:23 - - 12:08 15:50 15:23
Maximum _ 18,8 C 93 % 1028,1 hPa 0,2 l/m 24,1 km/h
W-SW (4 Bft)
- - 12,0 C 17,9 C 30,6 km/h
SW (5 Bft)
Durchschnitt _ 14,3 C 69 % 1026,4 hPa #0,4 l/m 5,6 km/h (1 Bft) W-NW - 8,3 C 13,6 C 8,7 km/h (2 Bft)